Sawbridgeworth, United Kingdom
Current Conditions -  °F | °C
As of 2:20 PM on Tuesday 21 Oct 2014 (Local Time) from EGSS Reporting Station
Scattered Clouds Scattered Clouds  
Wind Chill: 12°   Ceiling: Unl
Heat Index: 12°   Visibility: 6mi
Dew Point:   Wind: 20mph
Humidity: 62%   Direction: 290°WNW
Pressure: 29.68"   Gusts: 31mph
Location:  51.8°N, 0.14°E
Report Text: EGSS 211320Z 29017G27KT 9999 FEW026 SCT048 12/05 Q1005
Loading
Personal Weather Stations






























Interactive Weather Map
Tropical Storm Tracking
New forecast layout! Learn more

10-Day Weather Forecast

Advertisements
Track Severe Weather on mobile